createdAt,value
2022-11-14T00:00:32.603Z,98457.91
2022-11-14T00:03:19.342Z,98456.53
2022-11-14T00:06:06.392Z,98448.13
2022-11-14T00:08:53.085Z,98450.06
2022-11-14T00:11:39.949Z,98450.06
2022-11-14T00:14:26.330Z,98451.31
2022-11-14T00:17:14.380Z,98460.25
2022-11-14T00:20:01.186Z,98460.25
2022-11-14T00:22:48.067Z,98477.25
2022-11-14T00:25:34.837Z,98493.19
2022-11-14T00:28:21.594Z,98493.19
2022-11-14T00:31:08.326Z,98493.19
2022-11-14T00:33:56.502Z,98478.63
2022-11-14T00:36:43.098Z,98478.63
2022-11-14T00:39:30.014Z,98478.78
2022-11-14T00:42:16.496Z,98478.78
2022-11-14T00:45:03.299Z,98478.78
2022-11-14T00:47:50.026Z,98478.78
2022-11-14T00:50:38.293Z,98478.78
2022-11-14T00:53:24.934Z,98463.63
2022-11-14T00:56:11.796Z,98463.63
2022-11-14T00:58:58.646Z,98463.63
2022-11-14T01:01:44.931Z,98463.63
2022-11-14T01:04:31.733Z,98463.63
2022-11-14T01:07:19.943Z,98463.63
2022-11-14T01:10:07.162Z,98463.63
2022-11-14T01:12:53.886Z,98463.63
2022-11-14T01:15:41.091Z,98463.63
2022-11-14T01:18:28.461Z,98463.63
2022-11-14T01:21:15.757Z,98463.63
2022-11-14T01:24:03.778Z,98463.63
2022-11-14T01:26:50.440Z,98463.63
2022-11-14T01:29:37.210Z,98463.63
2022-11-14T01:32:24.191Z,98463.63
2022-11-14T01:35:10.934Z,98463.63
2022-11-14T01:37:57.527Z,98463.63
2022-11-14T01:40:46.463Z,98463.63
2022-11-14T01:43:34.139Z,98386.72
2022-11-14T01:46:23.097Z,98386.72
2022-11-14T01:49:15.347Z,98386.72
2022-11-14T01:52:04.313Z,98386.72
2022-11-14T01:54:52.657Z,98388.59
2022-11-14T01:57:41.947Z,98388.59
2022-11-14T02:00:28.744Z,98388.59
2022-11-14T02:03:16.150Z,98388.59
2022-11-14T02:06:03.949Z,98388.59
2022-11-14T02:08:51.864Z,98388.59
2022-11-14T02:11:40.839Z,98388.59
2022-11-14T02:14:29.688Z,98388.59
2022-11-14T02:17:32.188Z,98388.59
2022-11-14T02:20:21.544Z,98388.59
2022-11-14T02:23:08.350Z,98388.59
2022-11-14T02:25:55.335Z,98388.59
2022-11-14T02:28:41.838Z,98388.59
2022-11-14T02:31:28.690Z,-20476.00
2022-11-14T02:34:19.789Z,98388.59
2022-11-14T02:37:07.638Z,98388.59
2022-11-14T02:39:54.167Z,98388.59
2022-11-14T02:42:41.053Z,98388.59
2022-11-14T02:45:28.025Z,98388.59
2022-11-14T02:48:14.493Z,98388.59
2022-11-14T02:51:01.209Z,98342.47
2022-11-14T02:53:49.340Z,98342.47
2022-11-14T02:56:35.736Z,98345.09
2022-11-14T02:59:22.792Z,98345.09
2022-11-14T03:02:09.319Z,98345.09
2022-11-14T03:04:55.970Z,98337.25
2022-11-14T03:07:42.687Z,98341.44
2022-11-14T03:10:30.786Z,98341.44
2022-11-14T03:13:17.524Z,98354.06
2022-11-14T03:16:08.332Z,98354.06
2022-11-14T03:18:54.961Z,98354.06
2022-11-14T03:21:41.841Z,98354.06
2022-11-14T03:24:28.659Z,98354.06
2022-11-14T03:27:16.653Z,98354.06
2022-11-14T03:30:03.329Z,98354.06
2022-11-14T03:32:50.005Z,98354.06
2022-11-14T03:35:36.745Z,98345.28
2022-11-14T03:38:23.812Z,98345.28
2022-11-14T03:41:10.539Z,98345.28
2022-11-14T03:43:58.635Z,98345.28
2022-11-14T03:46:45.426Z,98345.28
2022-11-14T03:49:32.076Z,98345.28
2022-11-14T03:52:18.943Z,98345.28
2022-11-14T03:55:06.296Z,98345.28
2022-11-14T03:57:53.158Z,98345.28
2022-11-14T04:00:41.390Z,98345.28
2022-11-14T04:03:27.824Z,98345.28
2022-11-14T04:06:15.259Z,98345.28
2022-11-14T04:09:01.585Z,98345.28
2022-11-14T04:11:48.427Z,63131.69
2022-11-14T04:14:35.037Z,98345.28
2022-11-14T04:17:23.110Z,98345.28
2022-11-14T04:20:10.080Z,98285.47
2022-11-14T04:22:56.906Z,98291.91
2022-11-14T04:25:45.583Z,98290.09
2022-11-14T04:28:32.489Z,98290.09
2022-11-14T04:31:19.466Z,98290.09
2022-11-14T04:34:07.945Z,98290.09
2022-11-14T04:36:54.295Z,98290.09
2022-11-14T04:39:40.966Z,63131.69
2022-11-14T04:42:28.271Z,63131.69
2022-11-14T04:45:15.040Z,63131.69
2022-11-14T04:48:01.654Z,63131.69
2022-11-14T04:50:49.835Z,63131.69
2022-11-14T04:53:36.486Z,63131.69
2022-11-14T04:56:25.310Z,63131.69
2022-11-14T04:59:14.708Z,63131.69
2022-11-14T05:02:03.415Z,63131.69
2022-11-14T05:04:50.727Z,63131.69
2022-11-14T05:07:38.503Z,63131.69
2022-11-14T05:10:25.239Z,63131.69
2022-11-14T05:13:12.171Z,63131.69
2022-11-14T05:15:59.742Z,63131.69
2022-11-14T05:18:47.291Z,63131.69
2022-11-14T05:21:33.807Z,63131.69
2022-11-14T05:24:22.038Z,63131.69
2022-11-14T05:27:08.749Z,63131.69
2022-11-14T05:29:55.678Z,63131.69
2022-11-14T05:32:42.610Z,63131.69
2022-11-14T05:35:29.071Z,63131.69
2022-11-14T05:38:15.728Z,63131.69
2022-11-14T05:41:07.878Z,63131.69
2022-11-14T05:43:54.370Z,63131.69
2022-11-14T05:46:41.030Z,63131.69
2022-11-14T05:49:27.558Z,63131.69
2022-11-14T05:52:14.611Z,63131.69
2022-11-14T05:55:01.045Z,63131.69
2022-11-14T05:57:49.114Z,63131.69
2022-11-14T06:00:41.924Z,63131.69
2022-11-14T06:03:33.969Z,63131.69
2022-11-14T06:06:21.853Z,63131.69
2022-11-14T06:09:08.470Z,63131.69
2022-11-14T06:11:55.026Z,63131.69
2022-11-14T06:14:43.549Z,63131.69
2022-11-14T06:17:30.225Z,63131.69
2022-11-14T06:20:17.006Z,63131.69
2022-11-14T06:23:03.814Z,63131.69
2022-11-14T06:25:50.548Z,63131.69
2022-11-14T06:28:37.275Z,63131.69
2022-11-14T06:31:25.974Z,63131.69
2022-11-14T06:34:12.422Z,63131.69
2022-11-14T06:36:59.233Z,63131.69
2022-11-14T06:39:45.949Z,63131.69
2022-11-14T06:42:32.920Z,63131.69
2022-11-14T06:45:19.764Z,63131.69
2022-11-14T06:48:07.927Z,63131.69
2022-11-14T06:50:54.904Z,63131.69
2022-11-14T06:53:41.517Z,63131.69
2022-11-14T06:56:28.316Z,63131.69
2022-11-14T06:59:15.356Z,63131.69
2022-11-14T07:02:02.175Z,63131.69
2022-11-14T07:04:50.061Z,63131.69
2022-11-14T07:07:36.807Z,63131.69
2022-11-14T07:10:23.370Z,63131.69
2022-11-14T07:13:11.399Z,63131.69
2022-11-14T07:15:57.942Z,63131.69
2022-11-14T07:18:44.784Z,63131.69
2022-11-14T07:21:34.842Z,63131.69
2022-11-14T07:24:21.216Z,63131.69
2022-11-14T07:27:09.266Z,63131.69
2022-11-14T07:29:55.721Z,63131.69
2022-11-14T07:32:42.561Z,63131.69
2022-11-14T07:35:29.174Z,63131.69
2022-11-14T07:38:17.473Z,63131.69
2022-11-14T07:41:05.194Z,63131.69
2022-11-14T07:43:51.672Z,63131.69
2022-11-14T07:46:38.576Z,63131.69
2022-11-14T07:49:25.141Z,63131.69
2022-11-14T07:52:11.776Z,63131.69
2022-11-14T07:55:00.093Z,63131.69
2022-11-14T07:57:49.220Z,63131.69
2022-11-14T08:00:37.149Z,63131.69
2022-11-14T08:03:23.657Z,63131.69
2022-11-14T08:06:11.244Z,63131.69
2022-11-14T08:08:57.895Z,63131.69
2022-11-14T08:11:51.891Z,63131.69
2022-11-14T08:14:38.611Z,63131.69
2022-11-14T08:17:25.531Z,63131.69
2022-11-14T08:20:12.423Z,63131.69
2022-11-14T08:23:03.031Z,63131.69
2022-11-14T08:25:49.407Z,63131.69
2022-11-14T08:28:37.735Z,63131.69
2022-11-14T08:31:24.950Z,63131.69
2022-11-14T08:34:11.724Z,63131.69
2022-11-14T08:36:58.556Z,63131.69
2022-11-14T08:39:45.172Z,63131.69
2022-11-14T08:42:31.713Z,63131.69
2022-11-14T08:45:19.922Z,63131.69
2022-11-14T08:48:06.855Z,63131.69
2022-11-14T08:50:53.742Z,63131.69
2022-11-14T08:53:40.472Z,63131.69
2022-11-14T08:56:27.231Z,63131.69
2022-11-14T08:59:14.131Z,63131.69
2022-11-14T09:02:02.260Z,63131.69
2022-11-14T09:04:48.880Z,63131.69
2022-11-14T09:07:35.715Z,63131.69
2022-11-14T09:10:22.537Z,63131.69
2022-11-14T09:13:09.072Z,63131.69
2022-11-14T09:15:55.992Z,63131.69
2022-11-14T09:18:44.229Z,63131.69
2022-11-14T09:21:30.802Z,63131.69
2022-11-14T09:24:17.454Z,63131.69
2022-11-14T09:27:04.747Z,63131.69
2022-11-14T09:29:51.470Z,63131.69
2022-11-14T09:32:38.300Z,63131.69
2022-11-14T09:35:26.377Z,63131.69
2022-11-14T09:38:13.098Z,63131.69
2022-11-14T09:41:04.466Z,63131.69
2022-11-14T09:44:06.239Z,63131.69
2022-11-14T09:46:55.399Z,63131.69
2022-11-14T09:49:43.482Z,63131.69
2022-11-14T09:52:36.022Z,63131.69
2022-11-14T09:55:24.124Z,63131.69
2022-11-14T09:58:13.573Z,63131.69
2022-11-14T10:01:09.365Z,63131.69
2022-11-14T10:04:07.024Z,63131.69
2022-11-14T10:07:02.165Z,63131.69
2022-11-14T10:09:56.736Z,63131.69
2022-11-14T10:12:46.222Z,63131.69
2022-11-14T10:15:35.409Z,63131.69
2022-11-14T10:18:34.272Z,63131.69
2022-11-14T10:21:31.069Z,63131.69
2022-11-14T10:24:27.582Z,63131.69
2022-11-14T10:27:19.486Z,63131.69
2022-11-14T10:30:09.839Z,63131.69
2022-11-14T10:33:05.629Z,63131.69
2022-11-14T10:35:56.219Z,63131.69
2022-11-14T10:38:44.948Z,63131.69
2022-11-14T10:44:42.861Z,63131.69
2022-11-14T10:47:34.981Z,63131.69
2022-11-14T10:50:23.741Z,63131.69
2022-11-14T10:53:17.151Z,63131.69
2022-11-14T10:56:04.964Z,63131.69
2022-11-14T10:58:51.653Z,63131.69
2022-11-14T11:01:40.940Z,63131.69
2022-11-14T11:04:28.520Z,63131.69
2022-11-14T11:07:42.908Z,63131.69
2022-11-14T11:10:47.244Z,63131.69
2022-11-14T11:13:35.172Z,63131.69
2022-11-14T11:16:22.665Z,63131.69
2022-11-14T11:19:16.396Z,63131.69
2022-11-14T11:22:02.805Z,63131.69
2022-11-14T11:24:49.776Z,63131.69
2022-11-14T11:27:36.160Z,63131.69
2022-11-14T11:30:24.108Z,63131.69
2022-11-14T11:33:17.810Z,63131.69
2022-11-14T11:36:07.337Z,63131.69
2022-11-14T11:38:54.012Z,63131.69
2022-11-14T11:42:07.772Z,63131.69
2022-11-14T11:44:51.809Z,63131.69
2022-11-14T11:47:38.383Z,63131.69
2022-11-14T11:50:25.949Z,63131.69
2022-11-14T11:53:17.539Z,63131.69
2022-11-14T11:56:06.238Z,63131.69
2022-11-14T11:58:54.665Z,63131.69
2022-11-14T12:01:41.455Z,63131.69
2022-11-14T12:04:28.160Z,63131.69
2022-11-14T12:07:17.251Z,63131.69
2022-11-14T12:10:10.858Z,63131.69
2022-11-14T12:13:11.663Z,63131.69
2022-11-14T12:16:03.279Z,63131.69
2022-11-14T12:19:02.821Z,63131.69
2022-11-14T12:22:01.987Z,63131.69
2022-11-14T12:24:58.951Z,63131.69
2022-11-14T12:27:56.312Z,63131.69
2022-11-14T12:30:47.095Z,63131.69
2022-11-14T12:33:35.400Z,63131.69
2022-11-14T12:36:28.635Z,63131.69
2022-11-14T12:39:23.512Z,63131.69
2022-11-14T12:42:14.482Z,63131.69
2022-11-14T12:45:02.578Z,63131.69
2022-11-14T12:48:15.727Z,63131.69
2022-11-14T12:51:03.111Z,63131.69
2022-11-14T12:53:49.631Z,63131.69
2022-11-14T12:56:54.394Z,63131.69
2022-11-14T12:59:49.403Z,63131.69
2022-11-14T13:02:50.695Z,63131.69
2022-11-14T13:05:55.014Z,63131.69
2022-11-14T13:08:50.360Z,63131.69
2022-11-14T13:11:57.793Z,63131.69
2022-11-14T13:15:09.436Z,63131.69
2022-11-14T13:18:23.856Z,63131.69
2022-11-14T13:21:45.704Z,63131.69
2022-11-14T13:24:47.328Z,63131.69
2022-11-14T13:28:05.241Z,63131.69
2022-11-14T13:31:00.938Z,63131.69
2022-11-14T13:33:49.784Z,63131.69
2022-11-14T13:36:40.897Z,63131.69
2022-11-14T13:39:32.336Z,63131.69
2022-11-14T13:42:35.268Z,63131.69
2022-11-14T13:45:38.154Z,63131.69
2022-11-14T13:48:47.245Z,63131.69
2022-11-14T13:51:43.183Z,63131.69
2022-11-14T13:54:30.803Z,63131.69
2022-11-14T13:57:27.371Z,63131.69
2022-11-14T14:00:19.941Z,63131.69
2022-11-14T14:03:15.695Z,63131.69
2022-11-14T14:06:12.855Z,63131.69
2022-11-14T14:09:04.845Z,63131.69
2022-11-14T14:12:01.440Z,63131.69
2022-11-14T14:15:01.935Z,63131.69
2022-11-14T14:17:57.206Z,63131.69
2022-11-14T14:20:48.159Z,63131.69
2022-11-14T14:23:40.321Z,63131.69
2022-11-14T14:26:30.729Z,63131.69
2022-11-14T14:29:23.486Z,63131.69
2022-11-14T14:32:12.758Z,63131.69
2022-11-14T14:35:00.567Z,63131.69
2022-11-14T14:37:53.411Z,63131.69
2022-11-14T14:40:41.353Z,63131.69
2022-11-14T14:43:32.428Z,63131.69
2022-11-14T14:46:27.282Z,63131.69
2022-11-14T14:49:19.256Z,63131.69
2022-11-14T14:52:20.125Z,63131.69
2022-11-14T14:55:18.653Z,63131.69
2022-11-14T14:58:29.997Z,63131.69
2022-11-14T15:01:18.250Z,63131.69
2022-11-14T15:04:06.077Z,63131.69
2022-11-14T15:06:53.120Z,63131.69
2022-11-14T15:09:39.762Z,63131.69
2022-11-14T15:12:30.028Z,63131.69
2022-11-14T15:15:17.656Z,63131.69
2022-11-14T15:18:06.717Z,63131.69
2022-11-14T15:21:09.953Z,63131.69
2022-11-14T15:24:01.089Z,63131.69
2022-11-14T15:26:49.713Z,63131.69
2022-11-14T15:29:46.420Z,63131.69
2022-11-14T15:32:33.655Z,63131.69
2022-11-14T15:35:31.044Z,63131.69
2022-11-14T15:38:43.148Z,63131.69
2022-11-14T15:41:29.743Z,63131.69
2022-11-14T15:44:30.103Z,63131.69
2022-11-14T15:47:23.073Z,63131.69
2022-11-14T15:50:24.128Z,63131.69
2022-11-14T15:53:18.388Z,63131.69
2022-11-14T15:56:05.151Z,63131.69
2022-11-14T15:58:52.137Z,63131.69
2022-11-14T16:01:39.028Z,63131.69
2022-11-14T16:04:29.834Z,63131.69
2022-11-14T16:07:17.241Z,63131.69
2022-11-14T16:10:04.420Z,63131.69
2022-11-14T16:12:52.625Z,63131.69
2022-11-14T16:15:39.831Z,63131.69
2022-11-14T16:18:26.545Z,63131.69
2022-11-14T16:21:17.245Z,63131.69
2022-11-14T16:24:04.024Z,63131.69
2022-11-14T16:26:51.034Z,63131.69
2022-11-14T16:29:37.526Z,63131.69
2022-11-14T16:32:26.594Z,63131.69
2022-11-14T16:35:13.727Z,63131.69
2022-11-14T16:38:01.649Z,63131.69
2022-11-14T16:40:48.309Z,63131.69
2022-11-14T16:43:35.230Z,63131.69
2022-11-14T16:46:22.421Z,63131.69
2022-11-14T16:49:10.014Z,63131.69
2022-11-14T16:52:00.138Z,63131.69
2022-11-14T16:54:48.317Z,63131.69
2022-11-14T16:57:36.991Z,63131.69
2022-11-14T17:00:23.865Z,63131.69
2022-11-14T17:03:10.835Z,63131.69
2022-11-14T17:05:57.867Z,63131.69
2022-11-14T17:08:44.519Z,63131.69
2022-11-14T17:11:33.006Z,63131.69
2022-11-14T17:14:19.905Z,63131.69
2022-11-14T17:17:06.610Z,63131.69
2022-11-14T17:19:53.449Z,63131.69
2022-11-14T17:22:40.240Z,63131.69
2022-11-14T17:25:27.586Z,63131.69
2022-11-14T17:28:18.162Z,63131.69
2022-11-14T17:31:09.063Z,63131.69
2022-11-14T17:33:57.953Z,63131.69
2022-11-14T17:36:44.727Z,63131.69
2022-11-14T17:39:31.448Z,63131.69
2022-11-14T17:42:18.229Z,63131.69
2022-11-14T17:45:07.106Z,63131.69
2022-11-14T17:47:54.046Z,63131.69
2022-11-14T17:50:41.276Z,63131.69
2022-11-14T17:53:28.294Z,63131.69
2022-11-14T17:56:16.861Z,63131.69
2022-11-14T17:59:03.797Z,63131.69
2022-11-14T18:01:54.462Z,63131.69
2022-11-14T18:04:41.427Z,63131.69
2022-11-14T18:07:30.710Z,63131.69
2022-11-14T18:10:18.322Z,63131.69
2022-11-14T18:13:05.331Z,63131.69
2022-11-14T18:15:52.291Z,63131.69
2022-11-14T18:18:41.064Z,63131.69
2022-11-14T18:21:28.352Z,63131.69
2022-11-14T18:24:15.656Z,63131.69
2022-11-14T18:27:02.571Z,63131.69
2022-11-14T18:29:49.537Z,63131.69
2022-11-14T18:32:36.910Z,63131.69
2022-11-14T18:35:25.953Z,63131.69
2022-11-14T18:38:12.935Z,63131.69
2022-11-14T18:41:01.011Z,63131.69
2022-11-14T18:43:48.591Z,63131.69
2022-11-14T18:46:37.543Z,63131.69
2022-11-14T18:49:25.104Z,63131.69
2022-11-14T18:52:17.429Z,63131.69
2022-11-14T18:55:05.547Z,63131.69
2022-11-14T18:57:53.782Z,63131.69
2022-11-14T19:00:41.146Z,63131.69
2022-11-14T19:03:28.897Z,63131.69
2022-11-14T19:06:16.003Z,63131.69
2022-11-14T19:09:10.896Z,63131.69
2022-11-14T19:12:15.459Z,63131.69
2022-11-14T19:15:02.269Z,63131.69
2022-11-14T19:17:49.376Z,63131.69
2022-11-14T19:20:35.867Z,63131.69
2022-11-14T19:23:22.818Z,63131.69
2022-11-14T19:26:11.003Z,63131.69
2022-11-14T19:28:58.290Z,63131.69
2022-11-14T19:31:44.874Z,63131.69
2022-11-14T19:34:31.595Z,63131.69
2022-11-14T19:37:18.215Z,63131.69
2022-11-14T19:40:05.392Z,63131.69
2022-11-14T19:42:55.906Z,63131.69
2022-11-14T19:45:42.297Z,63131.69
2022-11-14T19:48:29.069Z,63131.69
2022-11-14T19:51:17.856Z,63131.69
2022-11-14T19:54:04.812Z,63131.69
2022-11-14T19:56:51.293Z,63131.69
2022-11-14T19:59:39.530Z,63131.69
2022-11-14T20:02:28.641Z,63131.69
2022-11-14T20:05:15.601Z,63131.69
2022-11-14T20:08:02.432Z,63131.69
2022-11-14T20:10:55.551Z,63131.69
2022-11-14T20:13:43.926Z,63131.69
2022-11-14T20:16:33.185Z,63131.69
2022-11-14T20:19:19.859Z,63131.69
2022-11-14T20:22:07.567Z,63131.69
2022-11-14T20:24:54.335Z,63131.69
2022-11-14T20:27:41.205Z,63131.69
2022-11-14T20:30:31.027Z,63131.69
2022-11-14T20:33:19.339Z,63131.69
2022-11-14T20:36:08.687Z,63131.69
2022-11-14T20:38:59.196Z,63131.69
2022-11-14T20:41:46.519Z,63131.69
2022-11-14T20:44:33.052Z,63131.69
2022-11-14T20:47:20.117Z,63131.69
2022-11-14T20:50:09.394Z,63131.69
2022-11-14T20:52:58.287Z,63131.69
2022-11-14T20:55:45.140Z,63131.69
2022-11-14T20:58:34.602Z,63131.69
2022-11-14T21:01:22.180Z,63131.69
2022-11-14T21:04:08.997Z,63131.69
2022-11-14T21:06:57.236Z,63131.69
2022-11-14T21:09:43.848Z,63131.69
2022-11-14T21:12:31.043Z,63131.69
2022-11-14T21:15:17.980Z,63131.69
2022-11-14T21:18:04.576Z,63131.69
2022-11-14T21:20:58.352Z,63131.69
2022-11-14T21:23:47.081Z,63131.69
2022-11-14T21:26:34.487Z,63131.69
2022-11-14T21:29:21.198Z,63131.69
2022-11-14T21:32:07.948Z,63131.69
2022-11-14T21:34:54.874Z,63131.69
2022-11-14T21:37:41.357Z,63131.69
2022-11-14T21:40:29.945Z,63131.69
2022-11-14T21:43:16.915Z,63131.69
2022-11-14T21:46:05.690Z,63131.69
2022-11-14T21:48:52.395Z,63131.69
2022-11-14T21:51:39.203Z,63131.69
2022-11-14T21:54:25.915Z,63131.69
2022-11-14T21:57:13.847Z,63131.69
2022-11-14T22:02:54.885Z,98149.81
2022-11-14T22:05:41.935Z,98151.97
2022-11-14T22:08:28.759Z,98146.59
2022-11-14T22:11:15.553Z,98148.22
2022-11-14T22:14:02.177Z,98155.19
2022-11-14T22:16:48.874Z,98155.47
2022-11-14T22:19:36.986Z,98149.88
2022-11-14T22:22:23.637Z,98142.81
2022-11-14T22:25:10.352Z,98150.47
2022-11-14T22:27:56.894Z,98150.94
2022-11-14T22:30:43.638Z,98159.50
2022-11-14T22:33:33.514Z,98159.63
2022-11-14T22:36:23.018Z,98154.94
2022-11-14T22:39:09.391Z,98159.63
2022-11-14T22:41:56.169Z,98160.66
2022-11-14T22:44:42.851Z,98135.78
2022-11-14T22:47:30.332Z,98156.56
2022-11-14T22:50:17.127Z,98155.25
2022-11-14T22:53:05.190Z,98150.34
2022-11-14T22:55:51.827Z,98156.09
2022-11-14T22:58:39.281Z,98159.16
2022-11-14T23:01:26.693Z,98162.19
2022-11-14T23:04:13.392Z,98164.56
2022-11-14T23:07:00.229Z,98167.41
2022-11-14T23:09:48.291Z,98169.16
2022-11-14T23:12:35.052Z,98172.16
2022-11-14T23:15:21.720Z,98182.81
2022-11-14T23:18:08.434Z,98184.03
2022-11-14T23:20:55.273Z,98179.66
2022-11-14T23:23:42.180Z,98173.53
2022-11-14T23:26:31.205Z,98167.72
2022-11-14T23:29:17.780Z,98170.56
2022-11-14T23:32:04.452Z,98169.97
2022-11-14T23:34:51.077Z,98175.91
2022-11-14T23:37:37.761Z,98169.50
2022-11-14T23:40:24.405Z,98166.69
2022-11-14T23:43:12.465Z,98165.91
2022-11-14T23:45:59.211Z,98164.25
2022-11-14T23:48:46.134Z,98165.47
2022-11-14T23:51:32.901Z,98152.16
2022-11-14T23:54:19.365Z,98158.28
2022-11-14T23:57:06.032Z,98158.22
2022-11-14T23:59:54.051Z,98151.56
